sensor_id;sensor_type;location;lat;lon;timestamp;P1;durP1;ratioP1;P2;durP2;ratioP2
73382;SDS011;61600;48.126;11.542;2023-10-31T00:01:50;1.25;;;0.80;;
73382;SDS011;61600;48.126;11.542;2023-10-31T00:04:16;1.58;;;0.70;;
73382;SDS011;61600;48.126;11.542;2023-10-31T00:06:42;1.45;;;0.70;;
73382;SDS011;61600;48.126;11.542;2023-10-31T00:09:07;1.83;;;0.60;;
73382;SDS011;61600;48.126;11.542;2023-10-31T00:11:33;0.88;;;0.60;;
73382;SDS011;61600;48.126;11.542;2023-10-31T00:13:59;0.45;;;0.30;;
73382;SDS011;61600;48.126;11.542;2023-10-31T00:16:25;1.60;;;0.50;;
73382;SDS011;61600;48.126;11.542;2023-10-31T00:18:51;0.57;;;0.30;;
73382;SDS011;61600;48.126;11.542;2023-10-31T00:21:16;0.63;;;0.40;;
73382;SDS011;61600;48.126;11.542;2023-10-31T00:23:43;0.45;;;0.20;;
73382;SDS011;61600;48.126;11.542;2023-10-31T00:26:09;0.75;;;0.38;;
73382;SDS011;61600;48.126;11.542;2023-10-31T00:28:35;0.82;;;0.30;;
73382;SDS011;61600;48.126;11.542;2023-10-31T00:31:01;0.85;;;0.30;;
73382;SDS011;61600;48.126;11.542;2023-10-31T00:33:29;0.73;;;0.40;;
73382;SDS011;61600;48.126;11.542;2023-10-31T00:35:55;0.60;;;0.30;;
73382;SDS011;61600;48.126;11.542;2023-10-31T00:38:21;0.45;;;0.20;;
73382;SDS011;61600;48.126;11.542;2023-10-31T00:40:47;2.13;;;0.30;;
73382;SDS011;61600;48.126;11.542;2023-10-31T00:43:12;0.32;;;0.20;;
73382;SDS011;61600;48.126;11.542;2023-10-31T00:45:38;0.93;;;0.40;;
73382;SDS011;61600;48.126;11.542;2023-10-31T00:48:04;0.80;;;0.30;;
73382;SDS011;61600;48.126;11.542;2023-10-31T00:50:30;1.45;;;0.30;;
73382;SDS011;61600;48.126;11.542;2023-10-31T00:52:55;0.20;;;0.15;;
73382;SDS011;61600;48.126;11.542;2023-10-31T00:55:21;1.10;;;0.32;;
73382;SDS011;61600;48.126;11.542;2023-10-31T00:57:47;1.60;;;0.45;;
73382;SDS011;61600;48.126;11.542;2023-10-31T01:00:13;0.25;;;0.22;;
73382;SDS011;61600;48.126;11.542;2023-10-31T01:02:39;0.20;;;0.20;;
73382;SDS011;61600;48.126;11.542;2023-10-31T01:05:05;2.22;;;0.28;;
73382;SDS011;61600;48.126;11.542;2023-10-31T01:07:30;0.10;;;0.10;;
73382;SDS011;61600;48.126;11.542;2023-10-31T01:09:56;0.13;;;0.10;;
73382;SDS011;61600;48.126;11.542;2023-10-31T01:12:22;0.40;;;0.20;;
73382;SDS011;61600;48.126;11.542;2023-10-31T01:14:48;0.65;;;0.10;;
73382;SDS011;61600;48.126;11.542;2023-10-31T01:17:13;0.10;;;0.10;;
73382;SDS011;61600;48.126;11.542;2023-10-31T01:19:39;0.70;;;0.28;;
73382;SDS011;61600;48.126;11.542;2023-10-31T01:22:05;0.20;;;0.20;;
73382;SDS011;61600;48.126;11.542;2023-10-31T01:26:58;2.72;;;0.20;;
73382;SDS011;61600;48.126;11.542;2023-10-31T01:29:23;0.08;;;0.08;;
73382;SDS011;61600;48.126;11.542;2023-10-31T01:31:49;0.10;;;0.10;;
73382;SDS011;61600;48.126;11.542;2023-10-31T01:34:15;0.20;;;0.13;;
73382;SDS011;61600;48.126;11.542;2023-10-31T01:36:41;0.10;;;0.10;;
73382;SDS011;61600;48.126;11.542;2023-10-31T01:39:06;0.00;;;0.00;;
73382;SDS011;61600;48.126;11.542;2023-10-31T01:41:33;0.63;;;0.20;;
73382;SDS011;61600;48.126;11.542;2023-10-31T01:43:59;0.10;;;0.10;;
73382;SDS011;61600;48.126;11.542;2023-10-31T01:46:24;10.20;;;0.50;;
73382;SDS011;61600;48.126;11.542;2023-10-31T01:48:50;0.20;;;0.15;;
73382;SDS011;61600;48.126;11.542;2023-10-31T01:51:16;0.38;;;0.10;;
73382;SDS011;61600;48.126;11.542;2023-10-31T01:53:42;0.65;;;0.25;;
73382;SDS011;61600;48.126;11.542;2023-10-31T01:56:08;0.43;;;0.20;;
73382;SDS011;61600;48.126;11.542;2023-10-31T01:58:34;0.98;;;0.20;;
73382;SDS011;61600;48.126;11.542;2023-10-31T02:01:01;0.10;;;0.10;;
73382;SDS011;61600;48.126;11.542;2023-10-31T02:03:27;0.43;;;0.20;;
73382;SDS011;61600;48.126;11.542;2023-10-31T02:05:53;0.10;;;0.00;;
73382;SDS011;61600;48.126;11.542;2023-10-31T02:08:19;0.00;;;0.00;;
73382;SDS011;61600;48.126;11.542;2023-10-31T02:10:45;0.40;;;0.20;;
73382;SDS011;61600;48.126;11.542;2023-10-31T02:13:11;0.73;;;0.10;;
73382;SDS011;61600;48.126;11.542;2023-10-31T02:15:38;0.10;;;0.10;;
73382;SDS011;61600;48.126;11.542;2023-10-31T02:18:04;0.28;;;0.17;;
73382;SDS011;61600;48.126;11.542;2023-10-31T02:20:31;0.35;;;0.10;;
73382;SDS011;61600;48.126;11.542;2023-10-31T02:22:57;0.00;;;0.00;;
73382;SDS011;61600;48.126;11.542;2023-10-31T02:25:22;0.00;;;0.00;;
73382;SDS011;61600;48.126;11.542;2023-10-31T02:27:48;1.23;;;0.15;;
73382;SDS011;61600;48.126;11.542;2023-10-31T02:30:14;0.10;;;0.10;;
73382;SDS011;61600;48.126;11.542;2023-10-31T02:32:40;0.00;;;0.00;;
73382;SDS011;61600;48.126;11.542;2023-10-31T02:35:06;0.15;;;0.00;;
73382;SDS011;61600;48.126;11.542;2023-10-31T02:37:32;0.05;;;0.03;;
73382;SDS011;61600;48.126;11.542;2023-10-31T02:39:58;0.10;;;0.08;;
73382;SDS011;61600;48.126;11.542;2023-10-31T02:42:25;0.43;;;0.13;;
73382;SDS011;61600;48.126;11.542;2023-10-31T02:44:51;0.73;;;0.20;;
73382;SDS011;61600;48.126;11.542;2023-10-31T02:47:16;0.95;;;0.28;;
73382;SDS011;61600;48.126;11.542;2023-10-31T02:49:42;0.28;;;0.10;;
73382;SDS011;61600;48.126;11.542;2023-10-31T02:52:08;0.70;;;0.20;;
73382;SDS011;61600;48.126;11.542;2023-10-31T02:54:33;0.85;;;0.17;;
73382;SDS011;61600;48.126;11.542;2023-10-31T02:56:59;0.75;;;0.10;;
73382;SDS011;61600;48.126;11.542;2023-10-31T02:59:25;0.20;;;0.10;;
73382;SDS011;61600;48.126;11.542;2023-10-31T03:01:51;0.50;;;0.10;;
73382;SDS011;61600;48.126;11.542;2023-10-31T03:04:18;0.70;;;0.20;;
73382;SDS011;61600;48.126;11.542;2023-10-31T03:06:43;0.55;;;0.10;;
73382;SDS011;61600;48.126;11.542;2023-10-31T03:09:09;0.10;;;0.10;;
73382;SDS011;61600;48.126;11.542;2023-10-31T03:11:35;0.10;;;0.00;;
73382;SDS011;61600;48.126;11.542;2023-10-31T03:14:01;0.10;;;0.10;;
73382;SDS011;61600;48.126;11.542;2023-10-31T03:16:27;0.13;;;0.10;;
73382;SDS011;61600;48.126;11.542;2023-10-31T03:18:54;0.00;;;0.00;;
73382;SDS011;61600;48.126;11.542;2023-10-31T03:21:19;0.13;;;0.10;;
73382;SDS011;61600;48.126;11.542;2023-10-31T03:23:48;0.30;;;0.17;;
73382;SDS011;61600;48.126;11.542;2023-10-31T03:26:15;0.63;;;0.10;;
73382;SDS011;61600;48.126;11.542;2023-10-31T03:28:42;0.10;;;0.00;;
73382;SDS011;61600;48.126;11.542;2023-10-31T03:33:35;0.77;;;0.30;;
73382;SDS011;61600;48.126;11.542;2023-10-31T03:36:00;0.10;;;0.03;;
73382;SDS011;61600;48.126;11.542;2023-10-31T03:38:26;0.80;;;0.15;;
73382;SDS011;61600;48.126;11.542;2023-10-31T03:40:52;0.10;;;0.10;;
73382;SDS011;61600;48.126;11.542;2023-10-31T03:43:18;0.15;;;0.15;;
73382;SDS011;61600;48.126;11.542;2023-10-31T03:45:45;1.25;;;0.10;;
73382;SDS011;61600;48.126;11.542;2023-10-31T03:48:12;0.25;;;0.08;;
73382;SDS011;61600;48.126;11.542;2023-10-31T03:50:38;0.13;;;0.10;;
73382;SDS011;61600;48.126;11.542;2023-10-31T03:53:05;0.28;;;0.15;;
73382;SDS011;61600;48.126;11.542;2023-10-31T03:55:32;0.10;;;0.10;;
73382;SDS011;61600;48.126;11.542;2023-10-31T03:57:57;0.20;;;0.10;;
73382;SDS011;61600;48.126;11.542;2023-10-31T04:00:23;1.65;;;0.10;;
73382;SDS011;61600;48.126;11.542;2023-10-31T04:02:49;0.47;;;0.20;;
73382;SDS011;61600;48.126;11.542;2023-10-31T04:05:15;0.20;;;0.15;;
73382;SDS011;61600;48.126;11.542;2023-10-31T04:07:41;0.13;;;0.10;;
73382;SDS011;61600;48.126;11.542;2023-10-31T04:10:07;0.22;;;0.20;;
73382;SDS011;61600;48.126;11.542;2023-10-31T04:12:33;1.23;;;0.20;;
73382;SDS011;61600;48.126;11.542;2023-10-31T04:14:59;0.30;;;0.10;;
73382;SDS011;61600;48.126;11.542;2023-10-31T04:17:24;1.42;;;0.40;;
73382;SDS011;61600;48.126;11.542;2023-10-31T04:19:50;1.77;;;0.40;;
73382;SDS011;61600;48.126;11.542;2023-10-31T04:22:16;0.00;;;0.00;;
73382;SDS011;61600;48.126;11.542;2023-10-31T04:24:41;0.55;;;0.20;;
73382;SDS011;61600;48.126;11.542;2023-10-31T04:27:08;1.10;;;0.20;;
73382;SDS011;61600;48.126;11.542;2023-10-31T04:29:34;0.30;;;0.20;;
73382;SDS011;61600;48.126;11.542;2023-10-31T04:32:00;0.20;;;0.20;;
73382;SDS011;61600;48.126;11.542;2023-10-31T04:34:26;0.57;;;0.40;;
73382;SDS011;61600;48.126;11.542;2023-10-31T04:36:51;0.55;;;0.32;;
73382;SDS011;61600;48.126;11.542;2023-10-31T04:39:17;0.73;;;0.30;;
73382;SDS011;61600;48.126;11.542;2023-10-31T04:41:43;0.43;;;0.25;;
73382;SDS011;61600;48.126;11.542;2023-10-31T04:44:09;0.75;;;0.30;;
73382;SDS011;61600;48.126;11.542;2023-10-31T04:46:35;0.70;;;0.30;;
73382;SDS011;61600;48.126;11.542;2023-10-31T04:49:01;0.45;;;0.20;;
73382;SDS011;61600;48.126;11.542;2023-10-31T04:51:27;2.05;;;0.40;;
73382;SDS011;61600;48.126;11.542;2023-10-31T04:53:53;0.40;;;0.30;;
73382;SDS011;61600;48.126;11.542;2023-10-31T04:56:19;2.03;;;1.20;;
73382;SDS011;61600;48.126;11.542;2023-10-31T04:58:44;1.33;;;0.63;;
73382;SDS011;61600;48.126;11.542;2023-10-31T05:01:11;2.67;;;0.50;;
73382;SDS011;61600;48.126;11.542;2023-10-31T05:03:38;0.60;;;0.40;;
73382;SDS011;61600;48.126;11.542;2023-10-31T05:06:04;1.42;;;0.35;;
73382;SDS011;61600;48.126;11.542;2023-10-31T05:08:31;0.73;;;0.35;;
73382;SDS011;61600;48.126;11.542;2023-10-31T05:10:57;0.57;;;0.32;;
73382;SDS011;61600;48.126;11.542;2023-10-31T05:13:24;1.75;;;0.50;;
73382;SDS011;61600;48.126;11.542;2023-10-31T05:15:50;0.60;;;0.38;;
73382;SDS011;61600;48.126;11.542;2023-10-31T05:18:16;2.20;;;0.50;;
73382;SDS011;61600;48.126;11.542;2023-10-31T05:20:42;0.95;;;0.47;;
73382;SDS011;61600;48.126;11.542;2023-10-31T05:23:09;2.72;;;0.38;;
73382;SDS011;61600;48.126;11.542;2023-10-31T05:25:35;0.38;;;0.30;;
73382;SDS011;61600;48.126;11.542;2023-10-31T05:28:01;1.13;;;0.35;;
73382;SDS011;61600;48.126;11.542;2023-10-31T05:30:30;0.88;;;0.35;;
73382;SDS011;61600;48.126;11.542;2023-10-31T05:32:56;1.23;;;0.60;;
73382;SDS011;61600;48.126;11.542;2023-10-31T05:35:22;0.95;;;0.60;;
73382;SDS011;61600;48.126;11.542;2023-10-31T05:37:50;1.25;;;0.40;;
73382;SDS011;61600;48.126;11.542;2023-10-31T05:40:16;0.85;;;0.40;;
73382;SDS011;61600;48.126;11.542;2023-10-31T05:42:42;0.70;;;0.57;;
73382;SDS011;61600;48.126;11.542;2023-10-31T05:45:08;1.30;;;0.57;;
73382;SDS011;61600;48.126;11.542;2023-10-31T05:47:34;2.13;;;0.60;;
73382;SDS011;61600;48.126;11.542;2023-10-31T05:50:00;2.40;;;0.40;;
73382;SDS011;61600;48.126;11.542;2023-10-31T05:52:28;3.30;;;0.98;;
73382;SDS011;61600;48.126;11.542;2023-10-31T05:54:55;0.47;;;0.35;;
73382;SDS011;61600;48.126;11.542;2023-10-31T05:57:22;1.17;;;0.60;;
73382;SDS011;61600;48.126;11.542;2023-10-31T05:59:49;4.68;;;0.70;;
73382;SDS011;61600;48.126;11.542;2023-10-31T06:02:16;2.20;;;0.60;;
73382;SDS011;61600;48.126;11.542;2023-10-31T06:04:42;0.85;;;0.50;;
73382;SDS011;61600;48.126;11.542;2023-10-31T06:07:07;0.82;;;0.50;;
73382;SDS011;61600;48.126;11.542;2023-10-31T06:09:33;0.95;;;0.50;;
73382;SDS011;61600;48.126;11.542;2023-10-31T06:12:00;5.68;;;1.80;;
73382;SDS011;61600;48.126;11.542;2023-10-31T06:14:25;4.80;;;1.00;;
73382;SDS011;61600;48.126;11.542;2023-10-31T06:16:51;4.13;;;0.70;;
73382;SDS011;61600;48.126;11.542;2023-10-31T06:19:17;3.75;;;0.90;;
73382;SDS011;61600;48.126;11.542;2023-10-31T06:21:43;4.55;;;0.75;;
73382;SDS011;61600;48.126;11.542;2023-10-31T06:24:09;1.35;;;0.68;;
73382;SDS011;61600;48.126;11.542;2023-10-31T06:26:35;3.10;;;0.73;;
73382;SDS011;61600;48.126;11.542;2023-10-31T06:29:01;1.27;;;0.70;;
73382;SDS011;61600;48.126;11.542;2023-10-31T06:31:27;2.70;;;0.55;;
73382;SDS011;61600;48.126;11.542;2023-10-31T06:33:53;3.35;;;0.70;;
73382;SDS011;61600;48.126;11.542;2023-10-31T06:36:19;1.48;;;0.63;;
73382;SDS011;61600;48.126;11.542;2023-10-31T06:38:45;1.08;;;0.52;;
73382;SDS011;61600;48.126;11.542;2023-10-31T06:41:12;6.88;;;0.70;;
73382;SDS011;61600;48.126;11.542;2023-10-31T06:43:38;2.15;;;0.70;;
73382;SDS011;61600;48.126;11.542;2023-10-31T06:48:31;1.48;;;0.60;;
73382;SDS011;61600;48.126;11.542;2023-10-31T06:50:57;1.23;;;0.60;;
73382;SDS011;61600;48.126;11.542;2023-10-31T06:53:22;1.30;;;0.47;;
73382;SDS011;61600;48.126;11.542;2023-10-31T06:55:48;1.40;;;0.60;;
73382;SDS011;61600;48.126;11.542;2023-10-31T06:58:14;1.52;;;0.47;;
73382;SDS011;61600;48.126;11.542;2023-10-31T07:00:40;1.15;;;0.70;;
73382;SDS011;61600;48.126;11.542;2023-10-31T07:03:06;0.85;;;0.52;;
73382;SDS011;61600;48.126;11.542;2023-10-31T07:05:35;1.45;;;0.50;;
73382;SDS011;61600;48.126;11.542;2023-10-31T07:08:02;1.77;;;0.70;;
73382;SDS011;61600;48.126;11.542;2023-10-31T07:10:28;1.20;;;0.50;;
73382;SDS011;61600;48.126;11.542;2023-10-31T07:12:55;2.75;;;0.70;;
73382;SDS011;61600;48.126;11.542;2023-10-31T07:15:21;2.78;;;0.60;;
73382;SDS011;61600;48.126;11.542;2023-10-31T07:17:47;2.58;;;0.80;;
73382;SDS011;61600;48.126;11.542;2023-10-31T07:20:13;4.70;;;1.77;;
73382;SDS011;61600;48.126;11.542;2023-10-31T07:22:40;2.10;;;0.77;;
73382;SDS011;61600;48.126;11.542;2023-10-31T07:25:07;4.80;;;1.88;;
73382;SDS011;61600;48.126;11.542;2023-10-31T07:27:34;2.35;;;1.00;;
73382;SDS011;61600;48.126;11.542;2023-10-31T07:30:04;2.10;;;0.70;;
73382;SDS011;61600;48.126;11.542;2023-10-31T07:32:31;3.60;;;0.82;;
73382;SDS011;61600;48.126;11.542;2023-10-31T07:34:58;1.20;;;0.57;;
73382;SDS011;61600;48.126;11.542;2023-10-31T07:37:24;2.78;;;1.00;;
73382;SDS011;61600;48.126;11.542;2023-10-31T07:39:50;3.28;;;0.60;;
73382;SDS011;61600;48.126;11.542;2023-10-31T07:42:19;3.00;;;0.70;;
73382;SDS011;61600;48.126;11.542;2023-10-31T07:44:45;1.30;;;0.60;;
73382;SDS011;61600;48.126;11.542;2023-10-31T07:47:11;3.15;;;0.60;;
73382;SDS011;61600;48.126;11.542;2023-10-31T07:49:37;2.65;;;0.75;;
73382;SDS011;61600;48.126;11.542;2023-10-31T07:52:03;2.13;;;0.60;;
73382;SDS011;61600;48.126;11.542;2023-10-31T07:54:30;0.85;;;0.50;;
73382;SDS011;61600;48.126;11.542;2023-10-31T07:56:56;1.83;;;0.50;;
73382;SDS011;61600;48.126;11.542;2023-10-31T07:59:21;2.17;;;0.60;;
73382;SDS011;61600;48.126;11.542;2023-10-31T08:01:47;2.20;;;0.90;;
73382;SDS011;61600;48.126;11.542;2023-10-31T08:04:14;1.58;;;0.52;;
73382;SDS011;61600;48.126;11.542;2023-10-31T08:06:40;1.05;;;0.50;;
73382;SDS011;61600;48.126;11.542;2023-10-31T08:09:06;1.55;;;0.85;;
73382;SDS011;61600;48.126;11.542;2023-10-31T08:11:33;3.63;;;0.60;;
73382;SDS011;61600;48.126;11.542;2023-10-31T08:14:01;1.50;;;0.47;;
73382;SDS011;61600;48.126;11.542;2023-10-31T08:16:28;1.92;;;0.70;;
73382;SDS011;61600;48.126;11.542;2023-10-31T08:18:56;0.82;;;0.52;;
73382;SDS011;61600;48.126;11.542;2023-10-31T08:21:21;3.42;;;0.57;;
73382;SDS011;61600;48.126;11.542;2023-10-31T08:23:48;2.15;;;0.88;;
73382;SDS011;61600;48.126;11.542;2023-10-31T08:26:13;2.67;;;0.55;;
73382;SDS011;61600;48.126;11.542;2023-10-31T08:28:39;2.75;;;0.80;;
73382;SDS011;61600;48.126;11.542;2023-10-31T08:31:06;2.55;;;0.70;;
73382;SDS011;61600;48.126;11.542;2023-10-31T08:33:32;1.55;;;0.50;;
73382;SDS011;61600;48.126;11.542;2023-10-31T08:35:59;1.27;;;0.60;;
73382;SDS011;61600;48.126;11.542;2023-10-31T08:38:24;1.50;;;0.60;;
73382;SDS011;61600;48.126;11.542;2023-10-31T08:40:50;2.08;;;0.50;;
73382;SDS011;61600;48.126;11.542;2023-10-31T08:43:16;3.88;;;0.40;;
73382;SDS011;61600;48.126;11.542;2023-10-31T08:45:45;2.85;;;0.82;;
73382;SDS011;61600;48.126;11.542;2023-10-31T08:48:12;0.95;;;0.52;;
73382;SDS011;61600;48.126;11.542;2023-10-31T08:50:38;4.88;;;0.65;;
73382;SDS011;61600;48.126;11.542;2023-10-31T08:53:04;3.67;;;0.63;;
73382;SDS011;61600;48.126;11.542;2023-10-31T08:55:30;1.95;;;0.50;;
73382;SDS011;61600;48.126;11.542;2023-10-31T08:57:56;1.38;;;0.40;;
73382;SDS011;61600;48.126;11.542;2023-10-31T09:00:22;2.40;;;0.60;;
73382;SDS011;61600;48.126;11.542;2023-10-31T09:02:49;2.33;;;0.65;;
73382;SDS011;61600;48.126;11.542;2023-10-31T09:05:15;0.95;;;0.47;;
73382;SDS011;61600;48.126;11.542;2023-10-31T09:07:41;2.47;;;0.60;;
73382;SDS011;61600;48.126;11.542;2023-10-31T09:10:07;4.10;;;0.80;;
73382;SDS011;61600;48.126;11.542;2023-10-31T09:12:33;2.67;;;0.65;;
73382;SDS011;61600;48.126;11.542;2023-10-31T09:15:00;3.72;;;0.95;;
73382;SDS011;61600;48.126;11.542;2023-10-31T09:17:26;5.53;;;0.75;;
73382;SDS011;61600;48.126;11.542;2023-10-31T09:19:52;1.50;;;0.70;;
73382;SDS011;61600;48.126;11.542;2023-10-31T09:22:19;1.98;;;0.65;;
73382;SDS011;61600;48.126;11.542;2023-10-31T09:24:45;3.28;;;0.77;;
73382;SDS011;61600;48.126;11.542;2023-10-31T09:27:11;3.75;;;0.75;;
73382;SDS011;61600;48.126;11.542;2023-10-31T09:29:38;1.27;;;0.63;;
73382;SDS011;61600;48.126;11.542;2023-10-31T09:32:04;2.53;;;0.85;;
73382;SDS011;61600;48.126;11.542;2023-10-31T09:34:32;2.53;;;0.90;;
73382;SDS011;61600;48.126;11.542;2023-10-31T09:36:58;1.98;;;0.82;;
73382;SDS011;61600;48.126;11.542;2023-10-31T09:39:24;2.83;;;0.50;;
73382;SDS011;61600;48.126;11.542;2023-10-31T09:41:49;3.13;;;0.68;;
73382;SDS011;61600;48.126;11.542;2023-10-31T09:44:16;2.10;;;0.55;;
73382;SDS011;61600;48.126;11.542;2023-10-31T09:46:42;3.17;;;0.80;;
73382;SDS011;61600;48.126;11.542;2023-10-31T09:49:09;2.25;;;0.70;;
73382;SDS011;61600;48.126;11.542;2023-10-31T09:54:03;2.30;;;0.80;;
73382;SDS011;61600;48.126;11.542;2023-10-31T09:56:32;1.33;;;0.70;;
73382;SDS011;61600;48.126;11.542;2023-10-31T09:59:00;2.15;;;0.65;;
73382;SDS011;61600;48.126;11.542;2023-10-31T10:01:28;3.58;;;0.70;;
73382;SDS011;61600;48.126;11.542;2023-10-31T10:03:54;2.58;;;0.60;;
73382;SDS011;61600;48.126;11.542;2023-10-31T10:06:21;1.55;;;0.50;;
73382;SDS011;61600;48.126;11.542;2023-10-31T10:08:49;1.70;;;0.73;;
73382;SDS011;61600;48.126;11.542;2023-10-31T10:11:16;1.33;;;0.70;;
73382;SDS011;61600;48.126;11.542;2023-10-31T10:13:41;0.88;;;0.50;;
73382;SDS011;61600;48.126;11.542;2023-10-31T10:16:08;2.45;;;0.63;;
73382;SDS011;61600;48.126;11.542;2023-10-31T10:21:05;3.75;;;0.80;;
73382;SDS011;61600;48.126;11.542;2023-10-31T10:23:31;3.40;;;0.70;;
73382;SDS011;61600;48.126;11.542;2023-10-31T10:25:59;1.08;;;0.50;;
73382;SDS011;61600;48.126;11.542;2023-10-31T10:30:53;2.70;;;0.80;;
73382;SDS011;61600;48.126;11.542;2023-10-31T10:33:20;5.82;;;0.50;;
73382;SDS011;61600;48.126;11.542;2023-10-31T10:35:47;1.88;;;0.52;;
73382;SDS011;61600;48.126;11.542;2023-10-31T10:38:14;1.90;;;0.50;;
73382;SDS011;61600;48.126;11.542;2023-10-31T10:40:42;1.52;;;0.50;;
73382;SDS011;61600;48.126;11.542;2023-10-31T10:43:12;1.20;;;0.50;;
73382;SDS011;61600;48.126;11.542;2023-10-31T10:45:45;1.90;;;0.82;;
73382;SDS011;61600;48.126;11.542;2023-10-31T10:48:15;2.53;;;0.50;;
73382;SDS011;61600;48.126;11.542;2023-10-31T10:50:43;4.80;;;0.50;;
73382;SDS011;61600;48.126;11.542;2023-10-31T10:53:24;0.40;;;0.40;;
73382;SDS011;61600;48.126;11.542;2023-10-31T10:55:57;3.65;;;0.63;;
73382;SDS011;61600;48.126;11.542;2023-10-31T10:58:33;6.38;;;0.85;;
73382;SDS011;61600;48.126;11.542;2023-10-31T11:01:06;1.38;;;0.70;;
73382;SDS011;61600;48.126;11.542;2023-10-31T11:03:34;4.63;;;0.73;;
73382;SDS011;61600;48.126;11.542;2023-10-31T11:06:00;5.63;;;0.77;;
73382;SDS011;61600;48.126;11.542;2023-10-31T11:08:27;2.45;;;0.63;;
73382;SDS011;61600;48.126;11.542;2023-10-31T11:10:53;2.17;;;0.47;;
73382;SDS011;61600;48.126;11.542;2023-10-31T11:15:47;2.55;;;0.50;;
73382;SDS011;61600;48.126;11.542;2023-10-31T11:18:18;5.90;;;0.77;;
73382;SDS011;61600;48.126;11.542;2023-10-31T11:20:46;1.65;;;0.70;;
73382;SDS011;61600;48.126;11.542;2023-10-31T11:23:12;1.25;;;0.60;;
73382;SDS011;61600;48.126;11.542;2023-10-31T11:25:42;4.28;;;0.65;;
73382;SDS011;61600;48.126;11.542;2023-10-31T11:28:15;1.40;;;0.80;;
73382;SDS011;61600;48.126;11.542;2023-10-31T11:30:43;2.90;;;0.90;;
73382;SDS011;61600;48.126;11.542;2023-10-31T11:33:11;1.35;;;0.63;;
73382;SDS011;61600;48.126;11.542;2023-10-31T11:35:39;3.28;;;0.50;;
73382;SDS011;61600;48.126;11.542;2023-10-31T11:38:07;5.63;;;1.48;;
73382;SDS011;61600;48.126;11.542;2023-10-31T11:40:34;3.78;;;0.77;;
73382;SDS011;61600;48.126;11.542;2023-10-31T11:43:02;1.55;;;0.70;;
73382;SDS011;61600;48.126;11.542;2023-10-31T11:45:33;2.25;;;0.60;;
73382;SDS011;61600;48.126;11.542;2023-10-31T11:48:07;2.10;;;0.70;;
73382;SDS011;61600;48.126;11.542;2023-10-31T11:50:34;3.80;;;1.15;;
73382;SDS011;61600;48.126;11.542;2023-10-31T11:53:01;1.67;;;0.65;;
73382;SDS011;61600;48.126;11.542;2023-10-31T12:00:45;3.75;;;0.60;;
73382;SDS011;61600;48.126;11.542;2023-10-31T12:03:16;1.65;;;0.50;;
73382;SDS011;61600;48.126;11.542;2023-10-31T12:05:58;2.83;;;0.57;;
73382;SDS011;61600;48.126;11.542;2023-10-31T12:08:28;1.48;;;0.55;;
73382;SDS011;61600;48.126;11.542;2023-10-31T12:11:08;2.00;;;0.57;;
73382;SDS011;61600;48.126;11.542;2023-10-31T12:13:37;2.15;;;0.50;;
73382;SDS011;61600;48.126;11.542;2023-10-31T12:16:04;2.90;;;0.88;;
73382;SDS011;61600;48.126;11.542;2023-10-31T12:18:33;1.25;;;0.52;;
73382;SDS011;61600;48.126;11.542;2023-10-31T12:21:00;2.97;;;0.75;;
73382;SDS011;61600;48.126;11.542;2023-10-31T12:23:26;2.33;;;0.80;;
73382;SDS011;61600;48.126;11.542;2023-10-31T12:25:53;2.80;;;0.80;;
73382;SDS011;61600;48.126;11.542;2023-10-31T12:28:22;2.05;;;0.60;;
73382;SDS011;61600;48.126;11.542;2023-10-31T12:30:51;2.63;;;0.65;;
73382;SDS011;61600;48.126;11.542;2023-10-31T12:33:22;1.70;;;0.50;;
73382;SDS011;61600;48.126;11.542;2023-10-31T12:35:59;1.55;;;0.55;;
73382;SDS011;61600;48.126;11.542;2023-10-31T12:38:27;1.15;;;0.68;;
73382;SDS011;61600;48.126;11.542;2023-10-31T12:40:54;1.55;;;0.60;;
73382;SDS011;61600;48.126;11.542;2023-10-31T12:45:47;1.55;;;0.40;;
73382;SDS011;61600;48.126;11.542;2023-10-31T12:48:12;1.45;;;0.50;;
73382;SDS011;61600;48.126;11.542;2023-10-31T12:50:38;1.50;;;0.40;;
73382;SDS011;61600;48.126;11.542;2023-10-31T12:53:05;1.33;;;0.50;;
73382;SDS011;61600;48.126;11.542;2023-10-31T12:55:37;2.85;;;0.70;;
73382;SDS011;61600;48.126;11.542;2023-10-31T12:58:04;2.17;;;0.38;;
73382;SDS011;61600;48.126;11.542;2023-10-31T13:00:31;0.88;;;0.43;;
73382;SDS011;61600;48.126;11.542;2023-10-31T13:03:04;0.98;;;0.40;;
73382;SDS011;61600;48.126;11.542;2023-10-31T13:05:32;4.00;;;0.40;;
73382;SDS011;61600;48.126;11.542;2023-10-31T13:07:58;1.70;;;0.43;;
73382;SDS011;61600;48.126;11.542;2023-10-31T13:10:26;0.95;;;0.40;;
73382;SDS011;61600;48.126;11.542;2023-10-31T13:12:54;0.38;;;0.32;;
73382;SDS011;61600;48.126;11.542;2023-10-31T13:15:21;1.42;;;0.40;;
73382;SDS011;61600;48.126;11.542;2023-10-31T13:17:48;0.98;;;0.40;;
73382;SDS011;61600;48.126;11.542;2023-10-31T13:20:15;1.02;;;0.32;;
73382;SDS011;61600;48.126;11.542;2023-10-31T13:22:42;0.35;;;0.25;;
73382;SDS011;61600;48.126;11.542;2023-10-31T13:25:10;0.85;;;0.40;;
73382;SDS011;61600;48.126;11.542;2023-10-31T13:27:37;0.55;;;0.30;;
73382;SDS011;61600;48.126;11.542;2023-10-31T13:30:04;1.73;;;0.60;;
73382;SDS011;61600;48.126;11.542;2023-10-31T13:32:31;0.80;;;0.43;;
73382;SDS011;61600;48.126;11.542;2023-10-31T13:34:57;0.68;;;0.35;;
73382;SDS011;61600;48.126;11.542;2023-10-31T13:37:24;2.55;;;0.50;;
73382;SDS011;61600;48.126;11.542;2023-10-31T13:39:50;1.60;;;0.35;;
73382;SDS011;61600;48.126;11.542;2023-10-31T13:42:17;1.50;;;0.52;;
73382;SDS011;61600;48.126;11.542;2023-10-31T13:44:44;0.95;;;0.60;;
73382;SDS011;61600;48.126;11.542;2023-10-31T13:47:10;2.05;;;0.45;;
73382;SDS011;61600;48.126;11.542;2023-10-31T13:49:36;1.13;;;0.40;;
73382;SDS011;61600;48.126;11.542;2023-10-31T13:52:04;0.73;;;0.40;;
73382;SDS011;61600;48.126;11.542;2023-10-31T13:54:33;0.70;;;0.35;;
73382;SDS011;61600;48.126;11.542;2023-10-31T13:56:59;1.00;;;0.40;;
73382;SDS011;61600;48.126;11.542;2023-10-31T13:59:26;0.88;;;0.40;;
73382;SDS011;61600;48.126;11.542;2023-10-31T14:01:51;2.00;;;0.70;;
73382;SDS011;61600;48.126;11.542;2023-10-31T14:04:18;1.35;;;0.40;;
73382;SDS011;61600;48.126;11.542;2023-10-31T14:06:45;0.63;;;0.32;;
73382;SDS011;61600;48.126;11.542;2023-10-31T14:09:11;1.40;;;0.60;;
73382;SDS011;61600;48.126;11.542;2023-10-31T14:11:38;0.57;;;0.30;;
73382;SDS011;61600;48.126;11.542;2023-10-31T14:14:05;0.55;;;0.30;;
73382;SDS011;61600;48.126;11.542;2023-10-31T14:16:39;1.17;;;0.60;;
73382;SDS011;61600;48.126;11.542;2023-10-31T14:19:06;1.77;;;0.50;;
73382;SDS011;61600;48.126;11.542;2023-10-31T14:21:33;0.85;;;0.55;;
73382;SDS011;61600;48.126;11.542;2023-10-31T14:24:02;2.45;;;0.70;;
73382;SDS011;61600;48.126;11.542;2023-10-31T14:26:29;1.67;;;0.50;;
73382;SDS011;61600;48.126;11.542;2023-10-31T14:28:58;1.55;;;0.50;;
73382;SDS011;61600;48.126;11.542;2023-10-31T14:31:23;2.05;;;0.80;;
73382;SDS011;61600;48.126;11.542;2023-10-31T14:33:49;0.82;;;0.40;;
73382;SDS011;61600;48.126;11.542;2023-10-31T14:36:16;1.25;;;0.30;;
73382;SDS011;61600;48.126;11.542;2023-10-31T14:38:42;0.47;;;0.43;;
73382;SDS011;61600;48.126;11.542;2023-10-31T14:41:08;4.45;;;0.88;;
73382;SDS011;61600;48.126;11.542;2023-10-31T14:43:37;4.00;;;1.63;;
73382;SDS011;61600;48.126;11.542;2023-10-31T14:46:03;1.10;;;0.55;;
73382;SDS011;61600;48.126;11.542;2023-10-31T14:48:30;1.60;;;0.70;;
73382;SDS011;61600;48.126;11.542;2023-10-31T14:50:56;2.00;;;0.80;;
73382;SDS011;61600;48.126;11.542;2023-10-31T14:53:23;1.65;;;0.70;;
73382;SDS011;61600;48.126;11.542;2023-10-31T14:55:49;2.90;;;0.80;;